Time;durP1;ratioP1;P1;durP2;ratioP2;P2;SDS_P1;SDS_P2;PMS_P1;PMS_P2;Temp;Humidity;BMP_temperature;BMP_pressure;BME280_temperature;BME280_humidity;BME280_pressure;Samples;Min_cycle;Max_cycle;Signal;HPM_P1;HPM_P2
2021/03/30 00:01:37;;;;;;;6.73;3.50;;;14.30;94.40;;;;;;4979749;28;20246;-84
2021/03/30 00:04:03;;;;;;;6.55;3.50;;;14.20;94.80;;;;;;4979684;28;20179;-83
2021/03/30 00:06:31;;;;;;;6.70;3.57;;;14.20;95.00;;;;;;4978998;28;20183;-82
2021/03/30 00:08:57;;;;;;;6.47;4.45;;;14.20;95.00;;;;;;4964044;28;20207;-82
2021/03/30 00:11:22;;;;;;;7.33;4.20;;;14.10;94.90;;;;;;4982604;28;20198;-82
2021/03/30 00:13:48;;;;;;;12.00;4.23;;;14.10;95.40;;;;;;4966487;28;20179;-81
2021/03/30 00:16:14;;;;;;;6.73;3.53;;;14.10;95.60;;;;;;4982875;28;20229;-82
2021/03/30 00:18:39;;;;;;;5.73;3.90;;;14.10;95.70;;;;;;4981389;28;20818;-84
2021/03/30 00:21:05;;;;;;;7.57;4.33;;;14.10;95.60;;;;;;4981970;28;20184;-82
2021/03/30 00:23:31;;;;;;;9.87;3.57;;;14.10;95.40;;;;;;4981841;28;20528;-82
2021/03/30 00:25:56;;;;;;;7.20;4.03;;;14.00;95.60;;;;;;4981496;28;20411;-81
2021/03/30 00:28:24;;;;;;;4.27;2.90;;;14.00;95.60;;;;;;4982297;28;20202;-82
2021/03/30 00:30:51;;;;;;;7.15;4.25;;;14.00;95.80;;;;;;4982772;28;20254;-82
2021/03/30 00:33:16;;;;;;;6.65;4.13;;;14.00;96.30;;;;;;4964454;28;20183;-81
2021/03/30 00:35:42;;;;;;;9.30;4.20;;;14.00;96.60;;;;;;4981320;28;20191;-84
2021/03/30 00:38:10;;;;;;;6.23;3.60;;;14.00;96.70;;;;;;4982337;28;20215;-82
2021/03/30 00:40:37;;;;;;;6.78;3.67;;;14.00;97.00;;;;;;4981437;28;20188;-82
2021/03/30 00:43:04;;;;;;;7.32;3.85;;;14.00;96.60;;;;;;4982329;28;20179;-82
2021/03/30 00:45:29;;;;;;;5.30;3.97;;;13.90;96.50;;;;;;4982902;28;20167;-82
2021/03/30 00:47:55;;;;;;;9.10;4.23;;;13.90;96.40;;;;;;4985928;28;20187;-82
2021/03/30 00:50:23;;;;;;;7.65;3.45;;;13.90;96.60;;;;;;4995685;28;20195;-81
2021/03/30 00:52:55;;;;;;;6.45;4.18;;;13.80;96.50;;;;;;4985787;28;20175;-83
2021/03/30 00:55:21;;;;;;;12.30;4.03;;;13.80;96.60;;;;;;4984150;28;20183;-82
2021/03/30 00:57:46;;;;;;;9.75;3.90;;;13.80;96.60;;;;;;4983142;28;20206;-82
2021/03/30 01:00:14;;;;;;;4.63;3.70;;;13.80;96.90;;;;;;4983315;28;20281;-81
2021/03/30 01:02:40;;;;;;;8.65;4.32;;;13.80;97.10;;;;;;4980931;28;20654;-81
2021/03/30 01:05:08;;;;;;;5.53;3.47;;;13.70;97.40;;;;;;4964571;28;20172;-82
2021/03/30 01:07:37;;;;;;;5.50;3.25;;;13.80;97.30;;;;;;4981834;28;20469;-82
2021/03/30 01:10:18;;;;;;;5.45;3.45;;;13.70;97.10;;;;;;4980269;28;20298;-84
2021/03/30 01:12:55;;;;;;;7.30;3.10;;;13.70;97.10;;;;;;4980832;28;20182;-83
2021/03/30 01:15:59;;;;;;;5.97;3.28;;;13.70;97.70;;;;;;4982877;28;20178;-83
2021/03/30 01:18:35;;;;;;;6.22;3.60;;;13.60;97.30;;;;;;4981985;28;20207;-83
2021/03/30 01:21:13;;;;;;;7.50;4.10;;;13.60;97.50;;;;;;4967362;28;20179;-83
2021/03/30 01:23:59;;;;;;;7.55;3.60;;;13.60;97.60;;;;;;4984007;28;20171;-83
2021/03/30 01:26:25;;;;;;;8.82;5.55;;;13.50;97.60;;;;;;4991167;28;20175;-84
2021/03/30 01:29:26;;;;;;;6.57;3.60;;;13.50;97.70;;;;;;4984170;28;20562;-82
2021/03/30 01:32:02;;;;;;;8.43;4.40;;;13.50;97.70;;;;;;4980086;28;20184;-81
2021/03/30 01:34:29;;;;;;;7.30;4.22;;;13.50;98.00;;;;;;4981371;28;20175;-83
2021/03/30 01:36:58;;;;;;;6.60;3.70;;;13.40;98.00;;;;;;4981481;28;20535;-82
2021/03/30 01:39:25;;;;;;;7.03;4.65;;;13.40;97.90;;;;;;4980044;28;20192;-82
2021/03/30 01:41:52;;;;;;;9.15;3.95;;;13.40;97.90;;;;;;4980194;28;20218;-81
2021/03/30 01:44:19;;;;;;;4.60;3.35;;;13.40;97.90;;;;;;4980659;28;20250;-83
2021/03/30 01:46:46;;;;;;;7.85;4.05;;;13.40;98.00;;;;;;4980254;28;20179;-82
2021/03/30 01:49:17;;;;;;;7.10;4.00;;;13.40;98.00;;;;;;4980005;28;20725;-82
2021/03/30 01:51:43;;;;;;;4.25;3.13;;;13.40;98.20;;;;;;4979558;28;20187;-82
2021/03/30 01:54:10;;;;;;;4.43;3.45;;;13.30;98.10;;;;;;4980290;28;20267;-81
2021/03/30 01:56:37;;;;;;;5.95;3.30;;;13.30;98.20;;;;;;4980287;28;20180;-83
2021/03/30 01:59:05;;;;;;;5.63;2.75;;;13.30;98.20;;;;;;4963975;28;20225;-81
2021/03/30 02:01:32;;;;;;;5.45;3.45;;;13.30;98.30;;;;;;4979243;28;20689;-81
2021/03/30 02:03:59;;;;;;;3.95;3.38;;;13.20;98.40;;;;;;4979952;28;20191;-83
2021/03/30 02:06:28;;;;;;;5.78;3.38;;;13.20;98.50;;;;;;4981301;28;20206;-83
2021/03/30 02:08:57;;;;;;;10.70;4.18;;;13.20;98.60;;;;;;4979227;28;20198;-81
2021/03/30 02:11:40;;;;;;;6.70;3.60;;;13.20;98.80;;;;;;4980466;28;20296;-82
2021/03/30 02:14:06;;;;;;;5.10;4.15;;;13.20;98.90;;;;;;4979923;28;20163;-81
2021/03/30 02:16:39;;;;;;;11.10;4.50;;;13.20;99.00;;;;;;4978661;28;20175;-80
2021/03/30 02:19:15;;;;;;;7.28;3.80;;;13.20;99.20;;;;;;4980164;28;20207;-81
2021/03/30 02:21:54;;;;;;;6.90;3.80;;;13.10;99.20;;;;;;4979292;28;20168;-82
2021/03/30 02:24:21;;;;;;;6.85;3.50;;;13.10;99.40;;;;;;4980363;28;20172;-82
2021/03/30 02:26:49;;;;;;;5.00;3.80;;;13.10;99.40;;;;;;4980704;28;20199;-82
2021/03/30 02:29:19;;;;;;;8.68;4.38;;;13.10;99.50;;;;;;4978532;28;20562;-81
2021/03/30 02:31:47;;;;;;;8.32;4.00;;;13.10;99.40;;;;;;4979464;28;20174;-81
2021/03/30 02:34:13;;;;;;;5.43;3.75;;;13.00;99.30;;;;;;4979732;28;20552;-80
2021/03/30 02:36:41;;;;;;;9.82;3.17;;;13.00;99.40;;;;;;4962822;28;20176;-82
2021/03/30 02:39:09;;;;;;;4.63;3.45;;;13.00;99.30;;;;;;4979029;28;20210;-81
2021/03/30 02:41:36;;;;;;;7.70;4.30;;;12.90;99.50;;;;;;4978535;28;20179;-82
2021/03/30 02:44:04;;;;;;;6.00;3.80;;;12.90;99.50;;;;;;4979360;28;20535;-82
2021/03/30 02:46:33;;;;;;;8.52;4.13;;;12.90;99.70;;;;;;4977838;28;20270;-80
2021/03/30 02:48:59;;;;;;;7.13;3.85;;;12.90;99.80;;;;;;4979549;28;20227;-81
2021/03/30 02:51:26;;;;;;;6.25;3.78;;;12.90;99.90;;;;;;4978697;28;20171;-81
2021/03/30 02:53:54;;;;;;;9.32;4.32;;;12.80;99.90;;;;;;4960995;28;20341;-81
2021/03/30 02:56:21;;;;;;;7.97;4.35;;;12.80;99.90;;;;;;4977493;28;20263;-82
2021/03/30 02:58:46;;;;;;;9.32;4.90;;;12.80;99.90;;;;;;4975278;28;20210;-82
2021/03/30 03:01:15;;;;;;;7.27;5.67;;;12.80;99.90;;;;;;4978027;28;20179;-82
2021/03/30 03:03:42;;;;;;;6.57;3.85;;;12.70;99.90;;;;;;4976859;28;20176;-81
2021/03/30 03:06:09;;;;;;;4.50;3.35;;;12.70;99.90;;;;;;4974649;28;20826;-82
2021/03/30 03:08:38;;;;;;;5.20;3.95;;;12.70;99.90;;;;;;4961202;28;20266;-81
2021/03/30 03:11:04;;;;;;;13.00;4.70;;;12.70;99.90;;;;;;4976257;28;20168;-81
2021/03/30 03:13:32;;;;;;;7.43;4.90;;;12.60;99.90;;;;;;4977978;28;20669;-83
2021/03/30 03:15:57;;;;;;;13.55;4.70;;;12.60;99.90;;;;;;4977703;28;20179;-81
2021/03/30 03:18:24;;;;;;;8.13;4.10;;;12.60;99.90;;;;;;4976420;28;20218;-83
2021/03/30 03:20:50;;;;;;;11.88;4.45;;;12.60;99.90;;;;;;4977915;28;20202;-82
2021/03/30 03:23:16;;;;;;;8.18;5.22;;;12.50;99.90;;;;;;4976060;28;20246;-82
2021/03/30 03:25:46;;;;;;;7.80;4.25;;;12.60;99.90;;;;;;4977514;28;20175;-81
2021/03/30 03:28:15;;;;;;;5.88;4.20;;;12.50;99.90;;;;;;4978919;28;20178;-82
2021/03/30 03:30:41;;;;;;;5.80;4.50;;;12.50;99.90;;;;;;4978783;28;20176;-82
2021/03/30 03:33:08;;;;;;;10.77;4.50;;;12.40;99.90;;;;;;4969014;28;20189;-81
2021/03/30 03:35:35;;;;;;;6.57;5.28;;;12.40;99.90;;;;;;4987076;28;20423;-82
2021/03/30 03:38:02;;;;;;;4.93;4.32;;;12.30;99.90;;;;;;4975639;28;20315;-83
2021/03/30 03:40:28;;;;;;;7.88;4.32;;;12.30;99.90;;;;;;4974938;28;20179;-81
2021/03/30 03:42:54;;;;;;;6.63;4.60;;;12.30;99.90;;;;;;4976161;28;20650;-82
2021/03/30 03:45:20;;;;;;;8.38;4.65;;;12.30;99.90;;;;;;4979323;28;20194;-82
2021/03/30 03:47:45;;;;;;;8.80;5.20;;;12.30;99.90;;;;;;4962293;28;20175;-82
2021/03/30 03:50:12;;;;;;;11.83;6.17;;;12.30;99.90;;;;;;4980390;28;20199;-83
2021/03/30 03:52:43;;;;;;;8.70;5.25;;;12.20;99.90;;;;;;4980698;28;20186;-81
2021/03/30 03:55:12;;;;;;;10.15;4.65;;;12.20;99.90;;;;;;4984352;28;20187;-82
2021/03/30 03:57:55;;;;;;;6.05;4.43;;;12.20;99.90;;;;;;4981014;28;20279;-83
2021/03/30 04:00:22;;;;;;;7.57;4.70;;;12.20;99.90;;;;;;4985736;28;20206;-82
2021/03/30 04:02:57;;;;;;;9.90;4.70;;;12.20;99.90;;;;;;4991944;28;20199;-82
2021/03/30 04:05:34;;;;;;;18.10;5.25;;;12.20;99.90;;;;;;4982824;28;20159;-82
2021/03/30 04:08:07;;;;;;;7.80;5.15;;;12.20;99.90;;;;;;4980267;28;20229;-82
2021/03/30 04:10:34;;;;;;;10.02;4.95;;;12.20;99.90;;;;;;4982077;28;20175;-83
2021/03/30 04:13:01;;;;;;;7.28;5.15;;;12.20;99.90;;;;;;4981348;28;20198;-82
2021/03/30 04:15:27;;;;;;;10.77;5.43;;;12.10;99.90;;;;;;4980297;28;20636;-81
2021/03/30 04:17:53;;;;;;;13.02;4.88;;;12.10;99.90;;;;;;4981253;28;20199;-82
2021/03/30 04:20:20;;;;;;;9.33;5.33;;;12.10;99.90;;;;;;4982305;28;20199;-81
2021/03/30 04:22:56;;;;;;;9.75;5.50;;;12.10;99.90;;;;;;4962828;28;20425;-82
2021/03/30 04:25:23;;;;;;;13.13;6.00;;;12.10;99.90;;;;;;4985636;28;20179;-82
2021/03/30 04:27:49;;;;;;;12.85;5.88;;;12.10;99.90;;;;;;4980216;28;20199;-82
2021/03/30 04:30:15;;;;;;;6.90;4.80;;;12.00;99.90;;;;;;4965051;28;20697;-82
2021/03/30 04:32:43;;;;;;;17.90;4.80;;;12.00;99.90;;;;;;4980312;28;20175;-81
2021/03/30 04:35:10;;;;;;;11.00;4.38;;;12.00;99.90;;;;;;4979957;28;20635;-80
2021/03/30 04:37:36;;;;;;;8.38;4.82;;;11.90;99.90;;;;;;4981312;28;20195;-81
2021/03/30 04:40:04;;;;;;;14.67;5.40;;;12.00;99.90;;;;;;4981065;28;20287;-82
2021/03/30 04:42:29;;;;;;;10.20;6.35;;;11.90;99.90;;;;;;4981573;28;20477;-80
2021/03/30 04:44:55;;;;;;;17.33;6.63;;;11.70;99.90;;;;;;4981654;28;20171;-80
2021/03/30 04:47:21;;;;;;;10.40;6.40;;;11.70;99.90;;;;;;4979274;28;20184;-81
2021/03/30 04:49:47;;;;;;;11.70;8.27;;;11.80;99.90;;;;;;4978219;28;20559;-80
2021/03/30 04:52:13;;;;;;;8.30;5.57;;;11.70;99.90;;;;;;4978722;28;20206;-81
2021/03/30 04:54:39;;;;;;;8.20;5.43;;;11.70;99.90;;;;;;4976805;28;20415;-82
2021/03/30 04:57:06;;;;;;;9.83;5.40;;;11.70;99.90;;;;;;4976975;28;20425;-81
2021/03/30 04:59:31;;;;;;;8.75;5.57;;;11.70;99.90;;;;;;4962661;28;20202;-80
2021/03/30 05:01:57;;;;;;;16.13;6.63;;;11.70;99.90;;;;;;4972093;28;20184;-81
2021/03/30 05:04:22;;;;;;;9.53;5.70;;;11.70;99.90;;;;;;4991926;28;20238;-82
2021/03/30 05:06:48;;;;;;;11.30;5.60;;;11.80;99.90;;;;;;4965741;28;20183;-82
2021/03/30 05:09:13;;;;;;;8.53;5.10;;;11.70;99.90;;;;;;4980398;28;20215;-82
2021/03/30 05:11:39;;;;;;;7.57;5.40;;;11.70;99.90;;;;;;4966671;28;20234;-82
2021/03/30 05:14:05;;;;;;;7.53;4.40;;;11.70;99.90;;;;;;4960671;29;20690;-81
2021/03/30 05:16:34;;;;;;;9.20;5.57;;;11.70;99.90;;;;;;4979004;28;20183;-82
2021/03/30 05:18:59;;;;;;;11.40;5.50;;;11.70;99.90;;;;;;4979912;28;20239;-82
2021/03/30 05:21:25;;;;;;;8.50;5.67;;;11.70;99.90;;;;;;4979355;28;20226;-82
2021/03/30 05:23:50;;;;;;;6.70;4.50;;;11.70;99.90;;;;;;4980264;28;20168;-82
2021/03/30 05:26:16;;;;;;;6.93;4.70;;;11.80;99.90;;;;;;4964247;28;20171;-82
2021/03/30 05:28:42;;;;;;;9.53;4.63;;;12.00;99.90;;;;;;4962374;28;20244;-84
2021/03/30 05:31:10;;;;;;;11.07;5.47;;;12.00;99.90;;;;;;4965655;28;20199;-83
2021/03/30 05:33:41;;;;;;;12.45;5.03;;;12.00;99.90;;;;;;4964168;28;20187;-83
2021/03/30 05:36:26;;;;;;;6.40;5.05;;;12.00;99.90;;;;;;4979448;28;20198;-83
2021/03/30 05:38:52;;;;;;;8.55;5.65;;;12.00;99.90;;;;;;4962558;29;20203;-82
2021/03/30 05:41:32;;;;;;;9.87;4.30;;;12.00;99.90;;;;;;4971483;28;20370;-83
2021/03/30 05:47:59;;;;;;;5.70;4.90;;;12.10;99.90;;;;;;4981736;28;20190;-83
2021/03/30 05:53:51;;;;;;;13.20;5.50;;;12.20;99.90;;;;;;4964001;28;20218;-84
2021/03/30 05:56:18;;;;;;;8.73;5.50;;;12.30;99.90;;;;;;4980139;28;20187;-84
2021/03/30 05:59:15;;;;;;;9.15;5.10;;;12.20;99.90;;;;;;4979499;28;20206;-84
2021/03/30 06:01:43;;;;;;;10.07;6.65;;;12.20;99.90;;;;;;4971924;28;20184;-85
2021/03/30 06:04:10;;;;;;;9.63;4.83;;;12.20;99.90;;;;;;4964706;28;20187;-85
2021/03/30 06:07:05;;;;;;;12.00;5.97;;;12.20;99.90;;;;;;4980017;28;20491;-85
2021/03/30 06:09:32;;;;;;;9.75;5.53;;;12.40;99.90;;;;;;4979183;28;20199;-82
2021/03/30 06:11:57;;;;;;;12.68;6.07;;;12.60;99.90;;;;;;4980437;28;20172;-84
2021/03/30 06:15:03;;;;;;;10.20;5.93;;;12.90;99.50;;;;;;4981049;28;20916;-85
2021/03/30 06:17:28;;;;;;;10.30;6.35;;;13.30;98.00;;;;;;4886144;29;20194;-84
2021/03/30 06:19:56;;;;;;;8.67;4.83;;;13.60;96.80;;;;;;4978610;28;20305;-82
2021/03/30 06:22:26;;;;;;;16.60;6.65;;;13.90;95.70;;;;;;4975706;28;20532;-84
2021/03/30 06:24:58;;;;;;;12.38;6.35;;;14.00;94.60;;;;;;4972852;28;20172;-85
2021/03/30 06:27:28;;;;;;;9.48;6.22;;;14.30;94.00;;;;;;4965583;28;20559;-83
2021/03/30 06:30:27;;;;;;;9.60;5.80;;;14.50;92.90;;;;;;4979895;28;20200;-85
2021/03/30 06:32:54;;;;;;;7.85;5.60;;;14.70;91.90;;;;;;4977667;28;20179;-83
2021/03/30 06:35:21;;;;;;;12.20;5.47;;;14.90;91.20;;;;;;4978978;28;20179;-84
2021/03/30 06:38:01;;;;;;;9.10;5.85;;;15.00;90.80;;;;;;4962263;28;20207;-83
2021/03/30 06:40:41;;;;;;;;;;;;;;;;;;;;;
2021/03/30 06:46:03;;;;;;;13.40;6.70;;;15.50;83.70;;;;;;4980000;28;20195;-85
2021/03/30 06:48:30;;;;;;;12.57;6.38;;;15.30;82.30;;;;;;4979512;28;20495;-83
2021/03/30 06:51:21;;;;;;;8.40;5.75;;;15.00;81.60;;;;;;4981391;28;20642;-85
2021/03/30 06:53:53;;;;;;;14.55;7.22;;;15.10;81.20;;;;;;4981651;28;20174;-85
2021/03/30 06:57:03;;;;;;;;;;;;;;;;;;;;;
2021/03/30 06:59:47;;;;;;;16.17;5.93;;;15.20;79.20;;;;;;4962726;28;20600;-86
2021/03/30 07:02:52;;;;;;;7.40;4.95;;;15.20;78.60;;;;;;4981581;28;20247;-84
2021/03/30 07:05:56;;;;;;;;;;;;;;;;;;;;;
2021/03/30 07:08:23;;;;;;;7.95;5.22;;;15.10;77.30;;;;;;4981598;28;20290;-83
2021/03/30 07:11:00;;;;;;;13.60;5.40;;;15.10;78.20;;;;;;4979955;28;20173;-84
2021/03/30 07:13:26;;;;;;;11.38;6.35;;;15.30;77.20;;;;;;4978415;28;20175;-84
2021/03/30 07:16:03;;;;;;;13.80;5.43;;;15.30;76.00;;;;;;4979058;28;20176;-83
2021/03/30 07:19:08;;;;;;;9.68;5.88;;;15.40;75.60;;;;;;4977786;28;20210;-83
2021/03/30 07:22:17;;;;;;;;;;;;;;;;;;;;;
2021/03/30 07:25:03;;;;;;;8.63;5.65;;;15.70;74.30;;;;;;4980324;28;20262;-82
2021/03/30 07:28:04;;;;;;;15.55;6.05;;;15.60;73.80;;;;;;4975663;28;20171;-83
2021/03/30 07:31:10;;;;;;;16.02;7.18;;;15.30;72.90;;;;;;4963138;28;20205;-83
2021/03/30 07:33:56;;;;;;;9.98;6.15;;;15.20;73.70;;;;;;4978583;28;20179;-84
2021/03/30 07:36:34;;;;;;;8.27;5.93;;;15.20;73.00;;;;;;4977806;28;20179;-83
2021/03/30 07:39:01;;;;;;;9.07;5.13;;;15.40;73.30;;;;;;4977680;28;20576;-84
2021/03/30 07:41:27;;;;;;;10.98;6.20;;;15.40;73.50;;;;;;4978676;28;20175;-85
2021/03/30 07:44:35;;;;;;;13.80;7.32;;;15.50;73.80;;;;;;4978409;28;20171;-84
2021/03/30 07:47:27;;;;;;;12.65;7.03;;;15.50;73.50;;;;;;4971715;28;20551;-84
2021/03/30 07:50:26;;;;;;;11.80;6.70;;;15.50;73.50;;;;;;4984661;28;20260;-83
2021/03/30 07:52:54;;;;;;;15.25;7.05;;;15.60;73.00;;;;;;4980195;28;20270;-83
2021/03/30 07:55:32;;;;;;;15.63;7.18;;;15.50;73.10;;;;;;4977204;28;20551;-83
2021/03/30 07:58:37;;;;;;;13.40;7.32;;;15.50;73.80;;;;;;4962717;28;20607;-83
2021/03/30 08:01:04;;;;;;;14.77;6.95;;;15.50;73.80;;;;;;4977472;28;20307;-83
2021/03/30 08:04:06;;;;;;;12.82;7.57;;;15.50;74.40;;;;;;4976756;28;20652;-82
2021/03/30 08:06:53;;;;;;;14.07;6.60;;;15.50;74.50;;;;;;4977731;28;20198;-83
2021/03/30 08:09:19;;;;;;;13.40;7.63;;;15.50;75.20;;;;;;4978055;28;20200;-82
2021/03/30 08:11:56;;;;;;;11.32;6.55;;;15.60;75.50;;;;;;4977627;28;20951;-83
2021/03/30 08:14:28;;;;;;;15.98;7.60;;;15.70;76.10;;;;;;4979002;28;20233;-82
2021/03/30 08:16:56;;;;;;;9.90;6.70;;;15.70;76.30;;;;;;4978718;28;20165;-82
2021/03/30 08:19:28;;;;;;;10.60;7.13;;;15.80;76.60;;;;;;4976447;28;21110;-82
2021/03/30 08:21:58;;;;;;;11.90;6.57;;;15.80;76.80;;;;;;4980179;28;20444;-81
2021/03/30 08:24:44;;;;;;;8.80;5.80;;;15.90;77.30;;;;;;4976140;28;20182;-81
2021/03/30 08:27:31;;;;;;;13.73;7.53;;;15.80;77.50;;;;;;4975710;28;20781;-82
2021/03/30 08:30:07;;;;;;;13.82;7.90;;;15.70;78.80;;;;;;4980259;28;20211;-82
2021/03/30 08:32:33;;;;;;;14.43;7.95;;;15.80;79.90;;;;;;4983300;28;20231;-82
2021/03/30 08:35:30;;;;;;;14.97;7.00;;;15.80;80.30;;;;;;4984424;28;20607;-81
2021/03/30 08:37:57;;;;;;;12.77;7.47;;;15.90;80.30;;;;;;4973384;28;20452;-81
2021/03/30 08:40:34;;;;;;;12.30;6.80;;;15.90;78.70;;;;;;4982500;28;20433;-81
2021/03/30 08:43:22;;;;;;;13.67;7.13;;;15.90;78.80;;;;;;4982723;28;20406;-81
2021/03/30 08:45:54;;;;;;;12.23;6.50;;;16.00;77.60;;;;;;4981004;28;20422;-81
2021/03/30 08:48:31;;;;;;;11.03;6.73;;;16.10;77.00;;;;;;4981570;28;20429;-82
2021/03/30 08:50:57;;;;;;;11.03;6.00;;;16.20;76.50;;;;;;4979174;28;20481;-81
2021/03/30 08:53:26;;;;;;;17.33;6.50;;;16.20;76.60;;;;;;4979053;28;20410;-82
2021/03/30 08:56:24;;;;;;;;;;;;;;;;;;;;;
2021/03/30 08:58:53;;;;;;;10.37;7.03;;;16.30;76.10;;;;;;4977821;28;20476;-80
2021/03/30 09:01:25;;;;;;;13.60;6.60;;;16.40;76.90;;;;;;4979835;28;20482;-81
2021/03/30 09:03:59;;;;;;;9.97;5.77;;;16.40;76.80;;;;;;4979816;28;20406;-83
2021/03/30 09:06:35;;;;;;;12.33;7.03;;;16.40;76.80;;;;;;4979975;28;20429;-81
2021/03/30 09:09:18;;;;;;;13.53;7.83;;;16.40;76.40;;;;;;4980451;28;20452;-82
2021/03/30 09:11:56;;;;;;;9.33;5.93;;;16.40;76.70;;;;;;4991667;28;20418;-82
2021/03/30 09:14:22;;;;;;;13.60;6.90;;;16.50;76.50;;;;;;4988941;28;20981;-81
2021/03/30 09:16:50;;;;;;;10.00;5.73;;;16.50;77.30;;;;;;4980877;28;20423;-80
2021/03/30 09:19:46;;;;;;;12.77;7.43;;;16.60;76.60;;;;;;4982331;28;20495;-80
2021/03/30 09:22:24;;;;;;;14.20;7.20;;;16.70;76.30;;;;;;4976282;28;20431;-81
2021/03/30 09:27:38;;;;;;;10.27;6.03;;;16.70;75.00;;;;;;4983038;28;20409;-81
2021/03/30 09:30:07;;;;;;;11.80;6.47;;;16.80;75.70;;;;;;4982815;28;20431;-81
2021/03/30 09:32:35;;;;;;;11.30;6.57;;;16.90;76.60;;;;;;4980924;28;20489;-81
2021/03/30 09:35:07;;;;;;;11.47;6.80;;;17.00;76.40;;;;;;4965305;28;20547;-82
2021/03/30 09:37:40;;;;;;;11.50;7.00;;;17.10;75.60;;;;;;4981329;28;20462;-83
2021/03/30 09:40:08;;;;;;;10.20;6.13;;;17.10;74.80;;;;;;4983048;28;20458;-81
2021/03/30 09:42:34;;;;;;;11.60;6.10;;;17.10;76.40;;;;;;4980490;28;20454;-81
2021/03/30 09:45:00;;;;;;;11.50;5.93;;;17.20;78.70;;;;;;4982476;28;20407;-81
2021/03/30 09:47:30;;;;;;;11.33;6.10;;;17.30;79.60;;;;;;4981603;28;20678;-81
2021/03/30 09:49:56;;;;;;;9.27;5.83;;;17.30;80.70;;;;;;4979672;28;20439;-82
2021/03/30 09:52:22;;;;;;;10.47;5.97;;;17.40;82.90;;;;;;4982519;28;20888;-81
2021/03/30 09:54:50;;;;;;;11.10;6.13;;;17.50;82.40;;;;;;4983203;28;20506;-82
2021/03/30 09:57:21;;;;;;;8.63;5.23;;;17.60;82.70;;;;;;4981650;28;20424;-82
2021/03/30 09:59:51;;;;;;;14.27;6.07;;;17.60;83.10;;;;;;4980576;28;20526;-81
2021/03/30 10:02:18;;;;;;;9.50;6.60;;;17.60;84.20;;;;;;4981107;28;20412;-81
2021/03/30 10:04:43;;;;;;;12.30;5.47;;;17.60;82.50;;;;;;4964264;28;20431;-82
2021/03/30 10:07:14;;;;;;;10.67;5.90;;;17.70;83.10;;;;;;4980364;28;20929;-82
2021/03/30 10:10:20;;;;;;;12.33;7.07;;;17.70;81.10;;;;;;4981801;28;20554;-82
2021/03/30 10:12:52;;;;;;;14.10;5.30;;;17.80;80.80;;;;;;4982646;28;20443;-85
2021/03/30 10:15:32;;;;;;;10.80;5.17;;;17.90;82.20;;;;;;4966398;28;20768;-81
2021/03/30 10:18:05;;;;;;;11.77;6.03;;;18.00;81.50;;;;;;4965904;28;20481;-82
2021/03/30 10:20:44;;;;;;;10.70;6.20;;;18.00;81.20;;;;;;4981771;28;20959;-83
2021/03/30 10:23:18;;;;;;;10.60;5.87;;;18.10;81.30;;;;;;4981043;28;20786;-83
2021/03/30 10:25:46;;;;;;;11.70;6.00;;;18.10;81.10;;;;;;4965770;28;20431;-83
2021/03/30 10:28:23;;;;;;;12.77;5.50;;;18.20;81.90;;;;;;4982135;28;20852;-83
2021/03/30 10:30:52;;;;;;;12.43;5.87;;;18.30;81.20;;;;;;4983117;28;20413;-83
2021/03/30 10:34:02;;;;;;;11.60;4.90;;;18.30;80.70;;;;;;4982300;28;20456;-82
2021/03/30 10:36:55;;;;;;;8.10;5.87;;;18.30;80.90;;;;;;4982606;28;20506;-84
2021/03/30 10:40:04;;;;;;;10.93;5.70;;;18.40;80.10;;;;;;4905904;29;20476;-82
2021/03/30 10:42:33;;;;;;;12.43;5.77;;;18.50;79.00;;;;;;4974334;28;20929;-82
2021/03/30 10:45:07;;;;;;;10.07;5.00;;;18.40;77.30;;;;;;4979699;28;20461;-81
2021/03/30 10:47:35;;;;;;;14.43;6.73;;;18.40;77.70;;;;;;4977670;28;20417;-81
2021/03/30 10:50:32;;;;;;;11.60;6.37;;;18.50;78.30;;;;;;4977439;28;20451;-81
2021/03/30 10:53:32;;;;;;;13.37;6.50;;;18.50;77.70;;;;;;4964042;28;20425;-81
2021/03/30 10:56:10;;;;;;;11.00;5.70;;;18.60;77.00;;;;;;4947485;28;20488;-82
2021/03/30 10:59:09;;;;;;;9.37;4.87;;;18.50;76.20;;;;;;4977510;28;20550;-82
2021/03/30 11:01:55;;;;;;;10.80;7.27;;;18.60;75.80;;;;;;4974552;28;20419;-82
2021/03/30 11:04:23;;;;;;;12.90;7.70;;;18.70;76.20;;;;;;4977222;28;20425;-82
2021/03/30 11:10:12;;;;;;;13.13;6.70;;;18.70;75.90;;;;;;4974931;28;20843;-82
2021/03/30 11:13:12;;;;;;;13.00;7.00;;;18.80;76.10;;;;;;4978099;28;20439;-82
2021/03/30 11:15:44;;;;;;;8.67;5.50;;;18.80;76.20;;;;;;4967395;28;20753;-82
2021/03/30 11:18:21;;;;;;;10.90;5.97;;;18.90;76.20;;;;;;4978119;28;20458;-81
2021/03/30 11:21:09;;;;;;;11.40;5.97;;;19.00;75.90;;;;;;4979487;28;20469;-82
2021/03/30 11:26:23;;;;;;;14.03;6.40;;;19.20;75.90;;;;;;4979669;28;20441;-82
2021/03/30 11:28:51;;;;;;;11.53;5.43;;;19.20;75.50;;;;;;4978118;28;20522;-83
2021/03/30 11:37:49;;;;;;;10.73;5.30;;;19.20;75.40;;;;;;4979199;28;20418;-82
2021/03/30 11:40:24;;;;;;;8.33;5.80;;;19.30;75.90;;;;;;4977753;28;20431;-82
2021/03/30 11:42:50;;;;;;;11.87;5.57;;;19.20;73.70;;;;;;4981219;28;20443;-83
2021/03/30 11:45:18;;;;;;;17.80;7.03;;;19.30;73.40;;;;;;4980907;28;20537;-83
2021/03/30 11:47:53;;;;;;;6.87;4.63;;;19.40;72.70;;;;;;4979066;28;20199;-83
2021/03/30 11:50:19;;;;;;;12.10;5.53;;;19.30;71.00;;;;;;4977025;28;20505;-82
2021/03/30 11:52:44;;;;;;;7.03;4.67;;;19.30;69.30;;;;;;4978956;28;20403;-81
2021/03/30 11:55:12;;;;;;;14.23;6.20;;;19.30;70.00;;;;;;4981852;28;20674;-81
2021/03/30 11:57:37;;;;;;;11.10;6.13;;;19.30;69.50;;;;;;4981600;28;20210;-82
2021/03/30 12:00:07;;;;;;;14.70;6.23;;;19.50;69.60;;;;;;4965039;28;20435;-81
2021/03/30 12:02:33;;;;;;;11.30;5.83;;;19.50;69.80;;;;;;4981669;28;20407;-81
2021/03/30 12:05:02;;;;;;;10.10;5.73;;;19.50;69.20;;;;;;4985031;28;20437;-84
2021/03/30 12:07:32;;;;;;;12.50;5.40;;;19.70;69.40;;;;;;4985739;28;20186;-84
2021/03/30 12:09:58;;;;;;;11.47;5.63;;;19.70;67.50;;;;;;4988606;28;20442;-82
2021/03/30 12:12:31;;;;;;;12.23;5.80;;;19.80;66.10;;;;;;4988462;28;20457;-83
2021/03/30 12:14:57;;;;;;;12.80;5.70;;;19.90;65.80;;;;;;4988931;28;20582;-83
2021/03/30 12:18:03;;;;;;;9.57;5.97;;;19.90;65.60;;;;;;4987346;28;20498;-82
2021/03/30 12:20:28;;;;;;;9.67;5.50;;;19.80;64.50;;;;;;4958851;28;20231;-83
2021/03/30 12:22:55;;;;;;;13.80;5.53;;;19.80;64.60;;;;;;4987723;28;20475;-82
2021/03/30 12:25:20;;;;;;;9.60;5.63;;;19.80;64.30;;;;;;4985728;28;20172;-83
2021/03/30 12:27:49;;;;;;;6.57;4.47;;;19.90;64.00;;;;;;4987345;28;20829;-84
2021/03/30 12:30:15;;;;;;;12.80;6.13;;;20.00;64.00;;;;;;4988757;28;20679;-82
2021/03/30 12:32:40;;;;;;;11.90;5.80;;;19.90;64.20;;;;;;4986903;28;20418;-81
2021/03/30 12:35:07;;;;;;;12.40;7.23;;;20.00;64.40;;;;;;4987221;28;20423;-83
2021/03/30 12:37:34;;;;;;;12.70;5.80;;;20.10;64.20;;;;;;4988271;28;20666;-82
2021/03/30 12:40:26;;;;;;;14.03;6.90;;;20.10;63.90;;;;;;4987738;28;20421;-82
2021/03/30 12:42:52;;;;;;;11.90;5.77;;;20.20;64.00;;;;;;4987060;28;20422;-82
2021/03/30 12:45:19;;;;;;;14.57;7.80;;;20.20;64.20;;;;;;4986880;28;20420;-82
2021/03/30 12:47:53;;;;;;;9.93;4.87;;;20.20;64.70;;;;;;4988599;28;20176;-83
2021/03/30 12:50:23;;;;;;;13.40;5.73;;;20.20;64.40;;;;;;4987420;28;20454;-82
2021/03/30 12:52:51;;;;;;;14.33;6.93;;;20.20;62.90;;;;;;4988617;28;20506;-83
2021/03/30 12:55:17;;;;;;;10.40;5.80;;;20.10;62.90;;;;;;4988260;28;20411;-83
2021/03/30 12:57:46;;;;;;;13.77;7.50;;;20.10;63.40;;;;;;4987586;28;20493;-82
2021/03/30 13:00:15;;;;;;;13.00;6.27;;;20.20;62.80;;;;;;4988865;28;20282;-84
2021/03/30 13:02:40;;;;;;;12.80;5.60;;;20.10;62.20;;;;;;4986319;28;20431;-83
2021/03/30 13:05:07;;;;;;;13.57;6.63;;;20.20;62.20;;;;;;4986746;28;20421;-83
2021/03/30 13:07:35;;;;;;;13.97;6.80;;;20.30;61.90;;;;;;4986306;28;20168;-83
2021/03/30 13:10:06;;;;;;;11.43;6.20;;;20.40;62.30;;;;;;4984109;28;20442;-82
2021/03/30 13:12:32;;;;;;;13.60;6.50;;;20.50;61.50;;;;;;4984409;28;20420;-82
2021/03/30 13:14:59;;;;;;;12.30;6.43;;;20.50;61.60;;;;;;4984921;28;20824;-82
2021/03/30 13:17:25;;;;;;;12.53;6.67;;;20.40;61.60;;;;;;4983273;28;20467;-82
2021/03/30 13:19:50;;;;;;;12.40;6.10;;;20.50;60.60;;;;;;4985019;28;20436;-82
2021/03/30 13:22:21;;;;;;;12.63;6.07;;;20.40;60.20;;;;;;4987058;28;20605;-82
2021/03/30 13:24:49;;;;;;;14.23;7.10;;;20.50;60.70;;;;;;4969646;28;20247;-83
2021/03/30 13:27:15;;;;;;;10.47;5.40;;;20.40;59.50;;;;;;4984749;28;20476;-82
2021/03/30 13:29:42;;;;;;;11.43;6.40;;;20.40;59.50;;;;;;4983722;28;20586;-83
2021/03/30 13:32:15;;;;;;;12.10;6.37;;;20.50;59.60;;;;;;4983623;28;20404;-82
2021/03/30 13:34:46;;;;;;;12.67;6.80;;;20.70;59.40;;;;;;4981957;28;20420;-82
2021/03/30 13:37:13;;;;;;;16.67;6.50;;;20.70;59.10;;;;;;4985829;28;20432;-82
2021/03/30 13:39:49;;;;;;;15.60;7.20;;;20.60;58.90;;;;;;4992430;28;20467;-82
2021/03/30 13:42:15;;;;;;;10.10;6.27;;;20.70;58.80;;;;;;4984751;28;20790;-82